Water Island, Virgin Islands
Current Conditions -  °F | °C
As of 6:00 PM on Wednesday 28 Jan 2015 (Local Time) from TUPJ Reporting Station
Scattered Clouds Scattered Clouds  
Wind Chill: 81°   Ceiling: Unl
Heat Index: 85°   Visibility: 6mi
Dew Point: 72°   Wind: 7mph
Humidity: 74%   Direction: 120°ESE
Pressure: 29.97"   Gusts: NA
Location:  18.32°N, 64.95°W
Report Text: TUPJ 282200Z 12006KT 9999 SCT019 27/22 Q1015 RMK A2997
Loading
Personal Weather Stations






























Interactive Weather Map New forecast layout! Learn more

10-Day Weather Forecast

Advertisements
Track Severe Weather on mobile